sensor_id;sensor_type;location;lat;lon;timestamp;temperature;humidity
19586;DHT22;9939;49.246;9.106;2022-08-19T00:01:24;21.40;99.90
19586;DHT22;9939;49.246;9.106;2022-08-19T00:04:02;21.40;99.90
19586;DHT22;9939;49.246;9.106;2022-08-19T00:06:29;21.30;99.90
19586;DHT22;9939;49.246;9.106;2022-08-19T00:08:58;21.40;99.90
19586;DHT22;9939;49.246;9.106;2022-08-19T00:11:27;21.30;99.90
19586;DHT22;9939;49.246;9.106;2022-08-19T00:13:55;21.40;99.90
19586;DHT22;9939;49.246;9.106;2022-08-19T00:16:24;21.30;99.90
19586;DHT22;9939;49.246;9.106;2022-08-19T00:18:53;21.30;99.90
19586;DHT22;9939;49.246;9.106;2022-08-19T00:21:26;21.30;99.90
19586;DHT22;9939;49.246;9.106;2022-08-19T00:23:54;21.30;99.90
19586;DHT22;9939;49.246;9.106;2022-08-19T00:26:26;21.30;99.90
19586;DHT22;9939;49.246;9.106;2022-08-19T00:28:54;21.20;99.90
19586;DHT22;9939;49.246;9.106;2022-08-19T00:31:22;21.30;99.90
19586;DHT22;9939;49.246;9.106;2022-08-19T00:33:48;21.40;99.90
19586;DHT22;9939;49.246;9.106;2022-08-19T00:36:17;21.40;99.90
19586;DHT22;9939;49.246;9.106;2022-08-19T00:38:44;21.40;99.90
19586;DHT22;9939;49.246;9.106;2022-08-19T00:41:16;21.20;99.90
19586;DHT22;9939;49.246;9.106;2022-08-19T00:44:07;21.20;99.90
19586;DHT22;9939;49.246;9.106;2022-08-19T00:46:36;21.30;99.90
19586;DHT22;9939;49.246;9.106;2022-08-19T00:52:04;21.30;99.90
19586;DHT22;9939;49.246;9.106;2022-08-19T00:54:33;21.20;99.90
19586;DHT22;9939;49.246;9.106;2022-08-19T00:57:02;21.30;99.90
19586;DHT22;9939;49.246;9.106;2022-08-19T00:59:35;21.20;99.90
19586;DHT22;9939;49.246;9.106;2022-08-19T01:02:23;21.20;99.90
19586;DHT22;9939;49.246;9.106;2022-08-19T01:04:50;21.30;99.90
19586;DHT22;9939;49.246;9.106;2022-08-19T01:07:18;21.30;99.90
19586;DHT22;9939;49.246;9.106;2022-08-19T01:09:46;21.20;99.90
19586;DHT22;9939;49.246;9.106;2022-08-19T01:12:13;21.20;99.90
19586;DHT22;9939;49.246;9.106;2022-08-19T01:14:41;21.10;99.90
19586;DHT22;9939;49.246;9.106;2022-08-19T01:17:09;21.10;99.90
19586;DHT22;9939;49.246;9.106;2022-08-19T01:19:40;21.00;99.90
19586;DHT22;9939;49.246;9.106;2022-08-19T01:24:43;21.00;99.90
19586;DHT22;9939;49.246;9.106;2022-08-19T01:27:16;21.00;99.90
19586;DHT22;9939;49.246;9.106;2022-08-19T01:29:44;21.00;99.90
19586;DHT22;9939;49.246;9.106;2022-08-19T01:32:14;21.10;99.90
19586;DHT22;9939;49.246;9.106;2022-08-19T01:35:01;21.10;99.90
19586;DHT22;9939;49.246;9.106;2022-08-19T01:37:29;21.10;99.90
19586;DHT22;9939;49.246;9.106;2022-08-19T01:39:57;21.10;99.90
19586;DHT22;9939;49.246;9.106;2022-08-19T01:42:24;21.00;99.90
19586;DHT22;9939;49.246;9.106;2022-08-19T01:44:56;21.00;99.90
19586;DHT22;9939;49.246;9.106;2022-08-19T01:47:23;21.00;99.90
19586;DHT22;9939;49.246;9.106;2022-08-19T01:49:51;21.00;99.90
19586;DHT22;9939;49.246;9.106;2022-08-19T01:52:18;21.00;99.90
19586;DHT22;9939;49.246;9.106;2022-08-19T01:54:45;20.90;99.90
19586;DHT22;9939;49.246;9.106;2022-08-19T01:57:12;21.00;99.90
19586;DHT22;9939;49.246;9.106;2022-08-19T01:59:41;20.90;99.90
19586;DHT22;9939;49.246;9.106;2022-08-19T02:02:09;20.90;99.90
19586;DHT22;9939;49.246;9.106;2022-08-19T02:04:38;20.90;99.90
19586;DHT22;9939;49.246;9.106;2022-08-19T02:07:06;21.00;99.90
19586;DHT22;9939;49.246;9.106;2022-08-19T02:09:34;21.00;99.90
19586;DHT22;9939;49.246;9.106;2022-08-19T02:12:03;20.90;99.90
19586;DHT22;9939;49.246;9.106;2022-08-19T02:14:30;20.90;99.90
19586;DHT22;9939;49.246;9.106;2022-08-19T02:16:57;20.90;99.90
19586;DHT22;9939;49.246;9.106;2022-08-19T02:19:24;20.80;99.90
19586;DHT22;9939;49.246;9.106;2022-08-19T02:21:51;20.90;99.90
19586;DHT22;9939;49.246;9.106;2022-08-19T02:24:18;20.80;99.90
19586;DHT22;9939;49.246;9.106;2022-08-19T02:26:44;20.80;99.90
19586;DHT22;9939;49.246;9.106;2022-08-19T02:29:11;20.80;99.90
19586;DHT22;9939;49.246;9.106;2022-08-19T02:31:38;20.80;99.90
19586;DHT22;9939;49.246;9.106;2022-08-19T02:34:05;20.90;99.90
19586;DHT22;9939;49.246;9.106;2022-08-19T02:36:32;20.90;99.90
19586;DHT22;9939;49.246;9.106;2022-08-19T02:38:59;20.90;99.90
19586;DHT22;9939;49.246;9.106;2022-08-19T02:41:29;20.90;99.90
19586;DHT22;9939;49.246;9.106;2022-08-19T02:43:59;20.90;99.90
19586;DHT22;9939;49.246;9.106;2022-08-19T02:46:48;20.70;99.90
19586;DHT22;9939;49.246;9.106;2022-08-19T02:49:18;20.70;99.90
19586;DHT22;9939;49.246;9.106;2022-08-19T02:51:46;20.80;99.90
19586;DHT22;9939;49.246;9.106;2022-08-19T02:54:14;20.80;99.90
19586;DHT22;9939;49.246;9.106;2022-08-19T02:56:42;20.70;99.90
19586;DHT22;9939;49.246;9.106;2022-08-19T02:59:10;20.70;99.90
19586;DHT22;9939;49.246;9.106;2022-08-19T03:01:40;20.60;99.90
19586;DHT22;9939;49.246;9.106;2022-08-19T03:04:11;20.60;99.90
19586;DHT22;9939;49.246;9.106;2022-08-19T03:06:40;20.70;99.90
19586;DHT22;9939;49.246;9.106;2022-08-19T03:09:09;20.60;99.90
19586;DHT22;9939;49.246;9.106;2022-08-19T03:11:37;20.50;99.90
19586;DHT22;9939;49.246;9.106;2022-08-19T03:14:06;20.50;99.90
19586;DHT22;9939;49.246;9.106;2022-08-19T03:16:39;20.50;99.90
19586;DHT22;9939;49.246;9.106;2022-08-19T03:19:07;20.50;99.90
19586;DHT22;9939;49.246;9.106;2022-08-19T03:21:34;20.50;99.90
19586;DHT22;9939;49.246;9.106;2022-08-19T03:24:05;20.60;99.90
19586;DHT22;9939;49.246;9.106;2022-08-19T03:26:33;20.50;99.90
19586;DHT22;9939;49.246;9.106;2022-08-19T03:29:04;20.40;99.90
19586;DHT22;9939;49.246;9.106;2022-08-19T03:31:31;20.40;99.90
19586;DHT22;9939;49.246;9.106;2022-08-19T03:34:24;20.30;99.90
19586;DHT22;9939;49.246;9.106;2022-08-19T03:36:56;20.30;99.90
19586;DHT22;9939;49.246;9.106;2022-08-19T03:39:24;20.40;99.90
19586;DHT22;9939;49.246;9.106;2022-08-19T03:41:53;20.30;99.90
19586;DHT22;9939;49.246;9.106;2022-08-19T03:44:43;20.30;99.90
19586;DHT22;9939;49.246;9.106;2022-08-19T03:47:11;20.40;99.90
19586;DHT22;9939;49.246;9.106;2022-08-19T03:49:43;20.40;99.90
19586;DHT22;9939;49.246;9.106;2022-08-19T03:52:10;20.40;99.90
19586;DHT22;9939;49.246;9.106;2022-08-19T03:54:38;20.40;99.90
19586;DHT22;9939;49.246;9.106;2022-08-19T03:57:05;20.40;99.90
19586;DHT22;9939;49.246;9.106;2022-08-19T03:59:35;20.40;99.90
19586;DHT22;9939;49.246;9.106;2022-08-19T04:02:05;20.40;99.90
19586;DHT22;9939;49.246;9.106;2022-08-19T04:04:40;20.30;99.90
19586;DHT22;9939;49.246;9.106;2022-08-19T04:07:09;20.30;99.90
19586;DHT22;9939;49.246;9.106;2022-08-19T04:09:37;20.30;99.90
19586;DHT22;9939;49.246;9.106;2022-08-19T04:12:04;20.20;99.90
19586;DHT22;9939;49.246;9.106;2022-08-19T04:14:33;20.10;99.90
19586;DHT22;9939;49.246;9.106;2022-08-19T04:17:02;20.20;99.90
19586;DHT22;9939;49.246;9.106;2022-08-19T04:19:32;20.10;99.90
19586;DHT22;9939;49.246;9.106;2022-08-19T04:21:59;20.10;99.90
19586;DHT22;9939;49.246;9.106;2022-08-19T04:24:27;20.10;99.90
19586;DHT22;9939;49.246;9.106;2022-08-19T04:26:54;20.10;99.90
19586;DHT22;9939;49.246;9.106;2022-08-19T04:29:23;20.10;99.90
19586;DHT22;9939;49.246;9.106;2022-08-19T04:31:53;20.10;99.90
19586;DHT22;9939;49.246;9.106;2022-08-19T04:34:23;20.20;99.90
19586;DHT22;9939;49.246;9.106;2022-08-19T04:36:53;20.10;99.90
19586;DHT22;9939;49.246;9.106;2022-08-19T04:39:26;20.20;99.90
19586;DHT22;9939;49.246;9.106;2022-08-19T04:42:12;20.20;99.90
19586;DHT22;9939;49.246;9.106;2022-08-19T04:44:58;20.30;99.90
19586;DHT22;9939;49.246;9.106;2022-08-19T04:47:25;20.40;99.90
19586;DHT22;9939;49.246;9.106;2022-08-19T04:50:14;20.30;99.90
19586;DHT22;9939;49.246;9.106;2022-08-19T04:52:44;20.30;99.90
19586;DHT22;9939;49.246;9.106;2022-08-19T04:55:12;20.40;99.90
19586;DHT22;9939;49.246;9.106;2022-08-19T04:57:39;20.50;99.90
19586;DHT22;9939;49.246;9.106;2022-08-19T05:00:10;20.50;99.90
19586;DHT22;9939;49.246;9.106;2022-08-19T05:02:38;20.50;99.90
19586;DHT22;9939;49.246;9.106;2022-08-19T05:05:05;20.50;99.90
19586;DHT22;9939;49.246;9.106;2022-08-19T05:07:33;20.50;99.90
19586;DHT22;9939;49.246;9.106;2022-08-19T05:10:01;20.50;99.90
19586;DHT22;9939;49.246;9.106;2022-08-19T05:12:28;20.60;99.90
19586;DHT22;9939;49.246;9.106;2022-08-19T05:14:57;20.60;99.90
19586;DHT22;9939;49.246;9.106;2022-08-19T05:17:25;20.60;99.90
19586;DHT22;9939;49.246;9.106;2022-08-19T05:19:56;20.60;99.90
19586;DHT22;9939;49.246;9.106;2022-08-19T05:22:43;20.60;99.90
19586;DHT22;9939;49.246;9.106;2022-08-19T05:25:15;20.50;99.90
19586;DHT22;9939;49.246;9.106;2022-08-19T05:27:45;20.60;99.90
19586;DHT22;9939;49.246;9.106;2022-08-19T05:30:12;20.70;99.90
19586;DHT22;9939;49.246;9.106;2022-08-19T05:32:40;20.80;99.90
19586;DHT22;9939;49.246;9.106;2022-08-19T05:35:07;20.80;99.90
19586;DHT22;9939;49.246;9.106;2022-08-19T05:37:34;20.80;99.90
19586;DHT22;9939;49.246;9.106;2022-08-19T05:40:03;20.90;99.90
19586;DHT22;9939;49.246;9.106;2022-08-19T05:42:31;20.90;99.90
19586;DHT22;9939;49.246;9.106;2022-08-19T05:44:58;20.90;99.90
19586;DHT22;9939;49.246;9.106;2022-08-19T05:47:25;20.90;99.90
19586;DHT22;9939;49.246;9.106;2022-08-19T05:49:52;21.00;99.90
19586;DHT22;9939;49.246;9.106;2022-08-19T05:52:19;21.10;99.90
19586;DHT22;9939;49.246;9.106;2022-08-19T05:54:53;21.00;99.90
19586;DHT22;9939;49.246;9.106;2022-08-19T05:57:24;21.00;99.90
19586;DHT22;9939;49.246;9.106;2022-08-19T05:59:51;21.00;99.90
19586;DHT22;9939;49.246;9.106;2022-08-19T06:02:28;21.00;99.90
19586;DHT22;9939;49.246;9.106;2022-08-19T06:04:57;21.10;99.90
19586;DHT22;9939;49.246;9.106;2022-08-19T06:07:25;21.00;99.90
19586;DHT22;9939;49.246;9.106;2022-08-19T06:09:52;21.00;99.90
19586;DHT22;9939;49.246;9.106;2022-08-19T06:12:30;21.20;99.90
19586;DHT22;9939;49.246;9.106;2022-08-19T06:15:05;21.30;99.90
19586;DHT22;9939;49.246;9.106;2022-08-19T06:17:32;21.40;99.90
19586;DHT22;9939;49.246;9.106;2022-08-19T06:20:04;21.40;99.90
19586;DHT22;9939;49.246;9.106;2022-08-19T06:22:31;21.40;99.90
19586;DHT22;9939;49.246;9.106;2022-08-19T06:24:58;21.50;99.90
19586;DHT22;9939;49.246;9.106;2022-08-19T06:27:25;21.50;99.90
19586;DHT22;9939;49.246;9.106;2022-08-19T06:29:52;21.60;99.90
19586;DHT22;9939;49.246;9.106;2022-08-19T06:32:19;21.60;99.90
19586;DHT22;9939;49.246;9.106;2022-08-19T06:34:46;21.70;99.90
19586;DHT22;9939;49.246;9.106;2022-08-19T06:37:13;21.60;99.90
19586;DHT22;9939;49.246;9.106;2022-08-19T06:39:42;21.50;99.90
19586;DHT22;9939;49.246;9.106;2022-08-19T06:42:11;21.50;99.90
19586;DHT22;9939;49.246;9.106;2022-08-19T06:44:46;21.60;99.90
19586;DHT22;9939;49.246;9.106;2022-08-19T06:47:18;21.70;99.90
19586;DHT22;9939;49.246;9.106;2022-08-19T06:49:55;21.80;99.90
19586;DHT22;9939;49.246;9.106;2022-08-19T06:52:34;22.00;99.90
19586;DHT22;9939;49.246;9.106;2022-08-19T06:55:05;22.00;99.90
19586;DHT22;9939;49.246;9.106;2022-08-19T06:57:33;22.00;99.90
19586;DHT22;9939;49.246;9.106;2022-08-19T07:00:00;22.10;99.90
19586;DHT22;9939;49.246;9.106;2022-08-19T07:02:28;22.20;99.90
19586;DHT22;9939;49.246;9.106;2022-08-19T07:04:55;22.30;99.90
19586;DHT22;9939;49.246;9.106;2022-08-19T07:07:24;22.30;99.90
19586;DHT22;9939;49.246;9.106;2022-08-19T07:09:52;22.40;99.90
19586;DHT22;9939;49.246;9.106;2022-08-19T07:12:32;22.50;99.90
19586;DHT22;9939;49.246;9.106;2022-08-19T07:15:05;22.40;99.90
19586;DHT22;9939;49.246;9.106;2022-08-19T07:17:33;22.50;99.90
19586;DHT22;9939;49.246;9.106;2022-08-19T07:20:06;22.80;99.90
19586;DHT22;9939;49.246;9.106;2022-08-19T07:22:39;22.90;99.90
19586;DHT22;9939;49.246;9.106;2022-08-19T07:25:07;22.90;99.90
19586;DHT22;9939;49.246;9.106;2022-08-19T07:27:35;23.00;99.90
19586;DHT22;9939;49.246;9.106;2022-08-19T07:30:07;23.30;99.90
19586;DHT22;9939;49.246;9.106;2022-08-19T07:32:38;23.40;99.90
19586;DHT22;9939;49.246;9.106;2022-08-19T07:35:06;23.80;99.90
19586;DHT22;9939;49.246;9.106;2022-08-19T07:37:33;23.80;99.90
19586;DHT22;9939;49.246;9.106;2022-08-19T07:40:03;23.80;99.90
19586;DHT22;9939;49.246;9.106;2022-08-19T07:42:30;23.60;99.90
19586;DHT22;9939;49.246;9.106;2022-08-19T07:44:58;23.90;99.90
19586;DHT22;9939;49.246;9.106;2022-08-19T07:47:25;24.30;99.90
19586;DHT22;9939;49.246;9.106;2022-08-19T07:50:14;24.00;99.90
19586;DHT22;9939;49.246;9.106;2022-08-19T07:52:41;23.90;99.90
19586;DHT22;9939;49.246;9.106;2022-08-19T07:55:16;23.90;99.90
19586;DHT22;9939;49.246;9.106;2022-08-19T07:58:03;24.20;99.90
19586;DHT22;9939;49.246;9.106;2022-08-19T08:00:32;24.30;99.90
19586;DHT22;9939;49.246;9.106;2022-08-19T08:02:59;24.20;99.90
19586;DHT22;9939;49.246;9.106;2022-08-19T08:05:26;24.70;99.90
19586;DHT22;9939;49.246;9.106;2022-08-19T08:08:13;24.70;99.90
19586;DHT22;9939;49.246;9.106;2022-08-19T08:11:00;24.70;99.90
19586;DHT22;9939;49.246;9.106;2022-08-19T08:13:27;24.70;99.90
19586;DHT22;9939;49.246;9.106;2022-08-19T08:15:56;24.70;99.90
19586;DHT22;9939;49.246;9.106;2022-08-19T08:18:23;24.80;99.90
19586;DHT22;9939;49.246;9.106;2022-08-19T08:20:54;25.10;99.90
19586;DHT22;9939;49.246;9.106;2022-08-19T08:23:22;25.00;99.90
19586;DHT22;9939;49.246;9.106;2022-08-19T08:25:53;24.90;99.90
19586;DHT22;9939;49.246;9.106;2022-08-19T08:28:22;25.30;99.90
19586;DHT22;9939;49.246;9.106;2022-08-19T08:30:50;25.30;99.90
19586;DHT22;9939;49.246;9.106;2022-08-19T08:33:20;25.00;99.90
19586;DHT22;9939;49.246;9.106;2022-08-19T08:36:10;24.70;99.90
19586;DHT22;9939;49.246;9.106;2022-08-19T08:38:39;25.10;99.90
19586;DHT22;9939;49.246;9.106;2022-08-19T08:41:26;25.30;99.90
19586;DHT22;9939;49.246;9.106;2022-08-19T08:43:56;25.40;99.90
19586;DHT22;9939;49.246;9.106;2022-08-19T08:54:36;25.60;99.90
19586;DHT22;9939;49.246;9.106;2022-08-19T08:57:14;25.70;99.90
19586;DHT22;9939;49.246;9.106;2022-08-19T08:59:43;25.80;99.90
19586;DHT22;9939;49.246;9.106;2022-08-19T09:02:12;25.60;99.90
19586;DHT22;9939;49.246;9.106;2022-08-19T09:04:39;25.30;99.90
19586;DHT22;9939;49.246;9.106;2022-08-19T09:10:29;25.40;99.90
19586;DHT22;9939;49.246;9.106;2022-08-19T09:13:21;25.00;99.90
19586;DHT22;9939;49.246;9.106;2022-08-19T09:16:00;25.00;99.90
19586;DHT22;9939;49.246;9.106;2022-08-19T09:18:41;25.00;99.90
19586;DHT22;9939;49.246;9.106;2022-08-19T09:21:09;25.10;99.90
19586;DHT22;9939;49.246;9.106;2022-08-19T09:23:37;25.10;99.90
19586;DHT22;9939;49.246;9.106;2022-08-19T09:26:15;25.10;99.90
19586;DHT22;9939;49.246;9.106;2022-08-19T09:28:47;25.20;99.90
19586;DHT22;9939;49.246;9.106;2022-08-19T09:31:18;25.30;99.90
19586;DHT22;9939;49.246;9.106;2022-08-19T09:33:46;25.20;99.90
19586;DHT22;9939;49.246;9.106;2022-08-19T09:36:16;25.50;99.90
19586;DHT22;9939;49.246;9.106;2022-08-19T09:38:56;25.50;99.90
19586;DHT22;9939;49.246;9.106;2022-08-19T09:41:25;25.30;99.90
19586;DHT22;9939;49.246;9.106;2022-08-19T09:43:56;25.20;99.90
19586;DHT22;9939;49.246;9.106;2022-08-19T09:46:27;25.60;99.90
19586;DHT22;9939;49.246;9.106;2022-08-19T09:48:58;26.40;99.90
19586;DHT22;9939;49.246;9.106;2022-08-19T09:51:32;26.60;99.90
19586;DHT22;9939;49.246;9.106;2022-08-19T09:54:04;27.00;99.90
19586;DHT22;9939;49.246;9.106;2022-08-19T09:56:32;26.40;99.90
19586;DHT22;9939;49.246;9.106;2022-08-19T09:59:02;26.50;99.90
19586;DHT22;9939;49.246;9.106;2022-08-19T10:01:31;27.00;99.90
19586;DHT22;9939;49.246;9.106;2022-08-19T10:04:00;27.40;99.90
19586;DHT22;9939;49.246;9.106;2022-08-19T10:06:40;27.60;99.90
19586;DHT22;9939;49.246;9.106;2022-08-19T10:09:13;27.50;99.90
19586;DHT22;9939;49.246;9.106;2022-08-19T10:11:42;27.70;99.90
19586;DHT22;9939;49.246;9.106;2022-08-19T10:14:20;27.50;99.90
19586;DHT22;9939;49.246;9.106;2022-08-19T10:16:50;28.20;99.90
19586;DHT22;9939;49.246;9.106;2022-08-19T10:19:19;27.90;99.90
19586;DHT22;9939;49.246;9.106;2022-08-19T10:21:53;28.10;99.90
19586;DHT22;9939;49.246;9.106;2022-08-19T10:24:25;28.10;99.90
19586;DHT22;9939;49.246;9.106;2022-08-19T10:26:55;27.70;99.90
19586;DHT22;9939;49.246;9.106;2022-08-19T10:29:24;27.70;99.90
19586;DHT22;9939;49.246;9.106;2022-08-19T10:32:04;28.10;99.90
19586;DHT22;9939;49.246;9.106;2022-08-19T10:34:39;29.90;99.90
19586;DHT22;9939;49.246;9.106;2022-08-19T10:37:18;29.70;99.90
19586;DHT22;9939;49.246;9.106;2022-08-19T10:39:55;29.30;99.90
19586;DHT22;9939;49.246;9.106;2022-08-19T10:42:22;29.70;99.90
19586;DHT22;9939;49.246;9.106;2022-08-19T10:44:49;30.50;99.90
19586;DHT22;9939;49.246;9.106;2022-08-19T10:47:18;30.70;99.90
19586;DHT22;9939;49.246;9.106;2022-08-19T10:49:53;29.70;99.90
19586;DHT22;9939;49.246;9.106;2022-08-19T10:52:44;29.10;99.90
19586;DHT22;9939;49.246;9.106;2022-08-19T10:55:21;28.90;99.90
19586;DHT22;9939;49.246;9.106;2022-08-19T10:58:12;28.50;99.90
19586;DHT22;9939;49.246;9.106;2022-08-19T11:00:40;28.60;99.90
19586;DHT22;9939;49.246;9.106;2022-08-19T11:03:07;28.90;99.90
19586;DHT22;9939;49.246;9.106;2022-08-19T11:05:36;29.80;99.90
19586;DHT22;9939;49.246;9.106;2022-08-19T11:08:07;30.70;99.90
19586;DHT22;9939;49.246;9.106;2022-08-19T11:10:53;31.00;99.90
19586;DHT22;9939;49.246;9.106;2022-08-19T11:13:28;30.00;99.90
19586;DHT22;9939;49.246;9.106;2022-08-19T11:16:08;29.00;99.90
19586;DHT22;9939;49.246;9.106;2022-08-19T11:18:38;28.70;99.90
19586;DHT22;9939;49.246;9.106;2022-08-19T11:21:13;28.80;99.90
19586;DHT22;9939;49.246;9.106;2022-08-19T11:23:40;29.10;99.90
19586;DHT22;9939;49.246;9.106;2022-08-19T11:26:08;29.20;99.90
19586;DHT22;9939;49.246;9.106;2022-08-19T11:28:35;28.90;99.90
19586;DHT22;9939;49.246;9.106;2022-08-19T11:31:02;28.30;99.90
19586;DHT22;9939;49.246;9.106;2022-08-19T11:33:32;28.10;99.90
19586;DHT22;9939;49.246;9.106;2022-08-19T11:35:59;27.70;99.90
19586;DHT22;9939;49.246;9.106;2022-08-19T11:38:27;27.40;99.90
19586;DHT22;9939;49.246;9.106;2022-08-19T11:40:59;27.10;99.90
19586;DHT22;9939;49.246;9.106;2022-08-19T11:43:27;27.60;99.90
19586;DHT22;9939;49.246;9.106;2022-08-19T11:45:57;28.70;99.90
19586;DHT22;9939;49.246;9.106;2022-08-19T11:48:25;29.50;99.90
19586;DHT22;9939;49.246;9.106;2022-08-19T11:50:53;29.60;99.90
19586;DHT22;9939;49.246;9.106;2022-08-19T11:53:23;29.70;99.90
19586;DHT22;9939;49.246;9.106;2022-08-19T11:55:52;29.40;99.90
19586;DHT22;9939;49.246;9.106;2022-08-19T11:58:23;29.40;99.90
19586;DHT22;9939;49.246;9.106;2022-08-19T12:00:52;29.40;99.90
19586;DHT22;9939;49.246;9.106;2022-08-19T12:03:19;29.60;99.90
19586;DHT22;9939;49.246;9.106;2022-08-19T12:05:46;29.60;99.90
19586;DHT22;9939;49.246;9.106;2022-08-19T12:08:13;29.30;99.90
19586;DHT22;9939;49.246;9.106;2022-08-19T12:10:42;29.50;99.90
19586;DHT22;9939;49.246;9.106;2022-08-19T12:13:10;29.20;99.90
19586;DHT22;9939;49.246;9.106;2022-08-19T12:15:39;28.90;99.90
19586;DHT22;9939;49.246;9.106;2022-08-19T12:18:09;28.50;99.90
19586;DHT22;9939;49.246;9.106;2022-08-19T12:20:39;28.00;99.90
19586;DHT22;9939;49.246;9.106;2022-08-19T12:23:08;27.60;99.90
19586;DHT22;9939;49.246;9.106;2022-08-19T12:25:42;27.30;99.90
19586;DHT22;9939;49.246;9.106;2022-08-19T12:28:15;27.30;99.90
19586;DHT22;9939;49.246;9.106;2022-08-19T12:30:43;27.50;99.90
19586;DHT22;9939;49.246;9.106;2022-08-19T12:33:10;27.90;99.90
19586;DHT22;9939;49.246;9.106;2022-08-19T12:35:43;27.80;99.90
19586;DHT22;9939;49.246;9.106;2022-08-19T12:38:13;28.20;99.90
19586;DHT22;9939;49.246;9.106;2022-08-19T12:40:41;28.70;99.90
19586;DHT22;9939;49.246;9.106;2022-08-19T12:43:08;29.60;99.90
19586;DHT22;9939;49.246;9.106;2022-08-19T12:45:35;30.60;99.90
19586;DHT22;9939;49.246;9.106;2022-08-19T12:48:03;31.30;99.90
19586;DHT22;9939;49.246;9.106;2022-08-19T12:50:51;31.40;99.90
19586;DHT22;9939;49.246;9.106;2022-08-19T12:53:18;30.90;99.90
19586;DHT22;9939;49.246;9.106;2022-08-19T12:55:45;30.50;99.90
19586;DHT22;9939;49.246;9.106;2022-08-19T12:58:12;30.00;99.90
19586;DHT22;9939;49.246;9.106;2022-08-19T13:00:40;29.20;99.90
19586;DHT22;9939;49.246;9.106;2022-08-19T13:03:07;28.90;99.90
19586;DHT22;9939;49.246;9.106;2022-08-19T13:05:34;28.60;99.90
19586;DHT22;9939;49.246;9.106;2022-08-19T13:08:01;28.50;99.90
19586;DHT22;9939;49.246;9.106;2022-08-19T13:10:32;28.40;99.90
19586;DHT22;9939;49.246;9.106;2022-08-19T13:13:05;28.60;99.90
19586;DHT22;9939;49.246;9.106;2022-08-19T13:15:34;28.60;99.90
19586;DHT22;9939;49.246;9.106;2022-08-19T13:18:02;28.60;99.90
19586;DHT22;9939;49.246;9.106;2022-08-19T13:20:29;28.60;99.90
19586;DHT22;9939;49.246;9.106;2022-08-19T13:22:56;29.10;99.90
19586;DHT22;9939;49.246;9.106;2022-08-19T13:25:24;29.60;99.90
19586;DHT22;9939;49.246;9.106;2022-08-19T13:27:52;29.70;99.90
19586;DHT22;9939;49.246;9.106;2022-08-19T13:30:20;30.30;99.90
19586;DHT22;9939;49.246;9.106;2022-08-19T13:33:07;32.30;99.90
19586;DHT22;9939;49.246;9.106;2022-08-19T13:35:49;32.10;98.60
19586;DHT22;9939;49.246;9.106;2022-08-19T13:38:20;33.30;97.90
19586;DHT22;9939;49.246;9.106;2022-08-19T13:40:48;33.40;97.80
19586;DHT22;9939;49.246;9.106;2022-08-19T13:43:17;34.80;96.10
19586;DHT22;9939;49.246;9.106;2022-08-19T13:45:51;37.50;93.30
19586;DHT22;9939;49.246;9.106;2022-08-19T13:48:21;37.10;92.20
19586;DHT22;9939;49.246;9.106;2022-08-19T13:50:48;35.40;93.50
19586;DHT22;9939;49.246;9.106;2022-08-19T13:53:16;35.20;93.90
19586;DHT22;9939;49.246;9.106;2022-08-19T13:55:43;35.10;94.90
19586;DHT22;9939;49.246;9.106;2022-08-19T13:58:12;33.70;92.90
19586;DHT22;9939;49.246;9.106;2022-08-19T14:00:43;32.70;94.10
19586;DHT22;9939;49.246;9.106;2022-08-19T14:03:11;30.80;95.80
19586;DHT22;9939;49.246;9.106;2022-08-19T14:05:38;29.90;97.10
19586;DHT22;9939;49.246;9.106;2022-08-19T14:08:05;29.70;97.80
19586;DHT22;9939;49.246;9.106;2022-08-19T14:10:32;28.80;98.80
19586;DHT22;9939;49.246;9.106;2022-08-19T14:13:02;29.10;98.60
19586;DHT22;9939;49.246;9.106;2022-08-19T14:15:30;28.60;99.20
19586;DHT22;9939;49.246;9.106;2022-08-19T14:17:58;28.50;99.60
19586;DHT22;9939;49.246;9.106;2022-08-19T14:20:25;28.60;99.60
19586;DHT22;9939;49.246;9.106;2022-08-19T14:22:53;28.30;99.90
19586;DHT22;9939;49.246;9.106;2022-08-19T14:25:26;28.30;99.90
19586;DHT22;9939;49.246;9.106;2022-08-19T14:27:53;28.30;99.60
19586;DHT22;9939;49.246;9.106;2022-08-19T14:30:24;28.20;99.90
19586;DHT22;9939;49.246;9.106;2022-08-19T14:32:56;28.40;99.50
19586;DHT22;9939;49.246;9.106;2022-08-19T14:35:26;28.60;99.00
19586;DHT22;9939;49.246;9.106;2022-08-19T14:37:54;28.50;98.90
19586;DHT22;9939;49.246;9.106;2022-08-19T14:40:24;28.30;98.90
19586;DHT22;9939;49.246;9.106;2022-08-19T14:42:55;28.50;98.70
19586;DHT22;9939;49.246;9.106;2022-08-19T14:45:30;28.50;98.90
19586;DHT22;9939;49.246;9.106;2022-08-19T14:47:58;28.30;96.90
19586;DHT22;9939;49.246;9.106;2022-08-19T14:50:27;28.50;97.00
19586;DHT22;9939;49.246;9.106;2022-08-19T14:53:05;28.70;96.80
19586;DHT22;9939;49.246;9.106;2022-08-19T14:55:42;28.80;96.60
19586;DHT22;9939;49.246;9.106;2022-08-19T14:58:10;29.00;96.50
19586;DHT22;9939;49.246;9.106;2022-08-19T15:00:57;29.50;96.20
19586;DHT22;9939;49.246;9.106;2022-08-19T15:03:25;29.20;96.80
19586;DHT22;9939;49.246;9.106;2022-08-19T15:05:52;30.00;97.20
19586;DHT22;9939;49.246;9.106;2022-08-19T15:08:19;29.90;98.40
19586;DHT22;9939;49.246;9.106;2022-08-19T15:10:52;30.20;98.40
19586;DHT22;9939;49.246;9.106;2022-08-19T15:13:19;30.90;98.70
19586;DHT22;9939;49.246;9.106;2022-08-19T15:15:47;31.70;97.10
19586;DHT22;9939;49.246;9.106;2022-08-19T15:18:14;31.70;97.40
19586;DHT22;9939;49.246;9.106;2022-08-19T15:20:42;31.30;97.30
19586;DHT22;9939;49.246;9.106;2022-08-19T15:23:13;32.20;97.00
19586;DHT22;9939;49.246;9.106;2022-08-19T15:25:41;32.30;96.70
19586;DHT22;9939;49.246;9.106;2022-08-19T15:28:10;33.20;95.00
19586;DHT22;9939;49.246;9.106;2022-08-19T15:30:42;33.30;92.30
19586;DHT22;9939;49.246;9.106;2022-08-19T15:33:10;32.20;92.40
19586;DHT22;9939;49.246;9.106;2022-08-19T15:35:42;32.40;92.30
19586;DHT22;9939;49.246;9.106;2022-08-19T15:38:09;32.10;92.20
19586;DHT22;9939;49.246;9.106;2022-08-19T15:40:41;32.70;91.90
19586;DHT22;9939;49.246;9.106;2022-08-19T15:43:08;32.60;91.80
19586;DHT22;9939;49.246;9.106;2022-08-19T15:45:35;32.80;91.50
19586;DHT22;9939;49.246;9.106;2022-08-19T15:48:03;32.60;91.60
19586;DHT22;9939;49.246;9.106;2022-08-19T15:50:31;32.50;91.70
19586;DHT22;9939;49.246;9.106;2022-08-19T15:53:04;32.90;91.60
19586;DHT22;9939;49.246;9.106;2022-08-19T15:55:35;33.30;90.90
19586;DHT22;9939;49.246;9.106;2022-08-19T15:58:08;33.90;90.70
19586;DHT22;9939;49.246;9.106;2022-08-19T16:01:04;33.80;90.80
19586;DHT22;9939;49.246;9.106;2022-08-19T16:03:51;33.70;90.80
19586;DHT22;9939;49.246;9.106;2022-08-19T16:06:53;33.20;91.10
19586;DHT22;9939;49.246;9.106;2022-08-19T16:09:23;32.50;91.10
19586;DHT22;9939;49.246;9.106;2022-08-19T16:11:58;33.10;91.00
19586;DHT22;9939;49.246;9.106;2022-08-19T16:14:30;33.30;91.00
19586;DHT22;9939;49.246;9.106;2022-08-19T16:16:57;33.00;91.10
19586;DHT22;9939;49.246;9.106;2022-08-19T16:19:25;32.10;91.30
19586;DHT22;9939;49.246;9.106;2022-08-19T16:21:54;32.00;92.00
19586;DHT22;9939;49.246;9.106;2022-08-19T16:24:23;31.60;92.40